Terminal Aerodrome Forecast
Issued by NWS Binghamton, NY

Home | Current Version | Previous Version | Text Only | Print | Product List | Glossary On
Versions: 1 2 3 4 5 6 7 8 9 10 11 12 13 14 15 16 17 18 19 20 21 22 23 24 25 26 27 28
000
FTUS41 KBGM 010037 AAB
TAFBGM
TAF AMD
KBGM 010037Z 0101/0124 16012KT P6SM SCT015 BKN030
      TEMPO 0101/0103 2SM TSRA OVC015CB
     FM010300 18010KT 4SM -SHRA OVC025
      TEMPO 0103/0107 2SM SHRA OVC015
     FM010700 21006KT 4SM -SHRA BR OVC007
     FM011300 25008KT P6SM BKN015
     FM011500 26008G16KT P6SM BKN040 PROB30 0117/0121 3SM TSRA
      OVC025CB=

USA.gov is the U.S. government's official web portal to all federal, state and local government web resources and services.